Terminal Aerodrome Forecast
Issued by NWS

Home | Current Version | Previous Version | Text Only | Print | Product List | Glossary On
Versions: 1 2 3 4 5 6 7 8 9 10 11 12 13 14 15
000
FTUS44 KSJT 021300 CCA
TAFBBD
TAF COR
KBBD 021342Z 0212/0312 22010KT P6SM SCT120
      TEMPO 0214/0216 SCT020
     FM021600 18010KT P6SM SCT040
     FM022000 23012KT P6SM VCTS SCT060CB
     FM030100 34007KT P6SM SKC=

USA.gov is the U.S. government's official web portal to all federal, state and local government web resources and services.